createdAt,value
2019-05-20T01:00:02.258Z,99.0
2019-05-20T01:21:01.716Z,99.0
2019-05-20T01:26:01.606Z,99.0
2019-05-20T01:36:01.595Z,99.0
2019-05-20T01:51:01.678Z,99.0
2019-05-20T02:01:01.479Z,99.0
2019-05-20T02:16:01.559Z,99.0
2019-05-20T02:21:01.664Z,99.0
2019-05-20T02:51:01.559Z,99.0
2019-05-20T03:06:01.799Z,99.0
2019-05-20T07:21:01.565Z,99.0
2019-05-20T07:26:01.621Z,99.0
2019-05-20T07:31:01.563Z,99.0
2019-05-20T07:36:01.564Z,99.0
2019-05-20T07:46:03.680Z,99.0
2019-05-20T07:51:01.573Z,99.0
2019-05-20T07:56:01.708Z,99.0
2019-05-20T08:01:01.635Z,99.0
2019-05-20T08:06:01.926Z,99.0
2019-05-20T08:15:02.045Z,99.0
2019-05-20T08:40:01.894Z,99.0
2019-05-20T08:55:02.791Z,97.47
2019-05-20T09:25:02.795Z,93.4
2019-05-20T09:36:02.033Z,91.65
2019-05-20T09:41:02.454Z,91.65
2019-05-20T09:46:08.741Z,89.32
2019-05-20T09:51:02.137Z,89.32
2019-05-20T09:56:01.698Z,89.56
2019-05-20T10:01:01.590Z,89.56
2019-05-20T10:06:02.016Z,90.8
2019-05-20T10:11:01.972Z,90.8
2019-05-20T10:16:01.600Z,91.85
2019-05-20T10:21:01.596Z,91.85
2019-05-20T10:26:01.689Z,94.03
2019-05-20T10:31:01.585Z,94.03
2019-05-20T10:36:01.758Z,91.34
2019-05-20T10:41:01.569Z,91.34
2019-05-20T10:46:01.593Z,87.03
2019-05-20T10:51:01.559Z,87.03
2019-05-20T10:56:03.221Z,82.96
2019-05-20T11:01:04.211Z,82.96
2019-05-20T11:06:01.632Z,80.66
2019-05-20T11:11:01.744Z,80.66
2019-05-20T11:16:01.577Z,77.85
2019-05-20T11:21:01.582Z,77.85
2019-05-20T11:26:01.895Z,74.81
2019-05-20T11:31:01.831Z,74.81
2019-05-20T11:36:01.628Z,69.47
2019-05-20T11:41:01.572Z,69.47
2019-05-20T11:46:01.607Z,70.95
2019-05-20T11:51:01.576Z,70.95
2019-05-20T11:57:01.630Z,68.8
2019-05-20T12:02:04.674Z,68.8
2019-05-20T12:12:01.946Z,70.06
2019-05-20T12:22:01.629Z,70.23
2019-05-20T12:38:01.700Z,67.22
2019-05-20T12:48:01.426Z,67.18
2019-05-20T12:53:01.746Z,67.18
2019-05-20T12:58:01.575Z,63.870000000000005
2019-05-20T13:03:01.664Z,63.870000000000005
2019-05-20T13:08:01.575Z,61.85
2019-05-20T13:13:01.909Z,61.85
2019-05-20T13:18:01.642Z,63.03
2019-05-20T13:28:01.745Z,61.86
2019-05-20T13:38:01.698Z,61.4
2019-05-20T13:43:01.626Z,61.4
2019-05-20T13:48:01.636Z,60.95
2019-05-20T13:53:01.657Z,60.95
2019-05-20T14:08:01.731Z,58.86
2019-05-20T14:13:02.008Z,58.86
2019-05-20T14:18:01.659Z,58.62
2019-05-20T14:23:01.633Z,58.62
2019-05-20T14:38:01.657Z,57.71
2019-05-20T14:43:01.622Z,57.71
2019-05-20T14:48:01.601Z,57.32
2019-05-20T14:58:01.750Z,58.36
2019-05-20T15:08:01.721Z,57.44
2019-05-20T15:23:01.622Z,56.75
2019-05-20T15:28:01.608Z,56.47
2019-05-20T15:38:01.686Z,56.49
2019-05-20T15:43:01.634Z,56.49
2019-05-20T15:53:01.633Z,57.14
2019-05-20T16:03:01.618Z,56.2
2019-05-20T16:08:02.539Z,54.66
2019-05-20T16:18:01.419Z,52.26
2019-05-20T16:23:01.613Z,52.26
2019-05-20T16:28:01.573Z,50.57
2019-05-20T16:33:02.607Z,50.57
2019-05-20T16:38:01.773Z,49.96
2019-05-20T16:43:01.775Z,49.96
2019-05-20T16:48:01.710Z,49.84
2019-05-20T16:58:01.716Z,53.72
2019-05-20T17:03:01.913Z,53.72
2019-05-20T17:09:03.013Z,56.13
2019-05-20T17:14:01.835Z,56.13
2019-05-20T17:19:01.699Z,58.18
2019-05-20T17:24:01.993Z,58.18
2019-05-20T17:29:01.699Z,60.31
2019-05-20T17:34:01.777Z,60.31
2019-05-20T17:39:01.705Z,59.39
2019-05-20T17:44:01.943Z,59.39
2019-05-20T17:49:01.835Z,60.67
2019-05-20T17:54:02.407Z,60.67
2019-05-20T17:59:01.714Z,62.15
2019-05-20T18:04:01.749Z,62.15
2019-05-20T18:09:01.591Z,62.91
2019-05-20T18:14:01.976Z,62.91
2019-05-20T18:19:01.703Z,64.78
2019-05-20T18:24:01.768Z,64.78
2019-05-20T18:29:01.775Z,66.44
2019-05-20T18:39:01.792Z,64.39
2019-05-20T18:49:01.783Z,65.5
2019-05-20T18:54:01.720Z,65.5
2019-05-20T18:59:01.538Z,67.24
2019-05-20T19:04:01.738Z,67.24
2019-05-20T19:09:01.738Z,68.24
2019-05-20T19:14:01.733Z,68.24
2019-05-20T19:19:01.720Z,69.7
2019-05-20T19:24:01.792Z,69.7
2019-05-20T19:29:01.858Z,71.95
2019-05-20T19:34:01.730Z,71.95
2019-05-20T19:39:01.795Z,75.94
2019-05-20T19:44:01.750Z,75.94
2019-05-20T19:49:01.782Z,77.42
2019-05-20T19:55:01.970Z,78.59
2019-05-20T20:00:01.817Z,78.59
2019-05-20T20:05:02.352Z,80.05
2019-05-20T20:10:01.802Z,80.05
2019-05-20T20:15:01.775Z,82.45
2019-05-20T20:20:01.733Z,82.45
2019-05-20T20:25:01.784Z,84.19
2019-05-20T20:30:01.747Z,84.19
2019-05-20T20:35:01.923Z,85.59
2019-05-20T20:40:01.731Z,85.59
2019-05-20T20:45:01.793Z,86.33
2019-05-20T20:50:02.567Z,86.33
2019-05-20T21:00:02.441Z,87.05
2019-05-20T21:05:01.574Z,87.53
2019-05-20T21:15:02.393Z,88.2
2019-05-20T21:30:01.695Z,88.73
2019-05-20T21:45:01.756Z,88.48
2019-05-20T22:00:01.875Z,89.12
2019-05-20T22:10:02.663Z,89.68
2019-05-20T22:15:01.823Z,89.84
2019-05-20T22:30:01.662Z,90.82
2019-05-20T22:45:01.638Z,90.68
2019-05-20T22:55:01.700Z,91.08
2019-05-20T23:11:01.681Z,92.12
2019-05-20T23:26:01.587Z,92.93
2019-05-20T23:41:01.642Z,93.64
2019-05-20T23:52:02.654Z,95.0
